sensor_id;sensor_type;location;lat;lon;timestamp;P1;durP1;ratioP1;P2;durP2;ratioP2
28822;SDS011;15961;54.678;9.110;2024-01-16T00:05:19;8.98;;;4.90;;
28822;SDS011;15961;54.678;9.110;2024-01-16T00:08:05;8.32;;;5.18;;
28822;SDS011;15961;54.678;9.110;2024-01-16T00:10:50;7.00;;;4.22;;
28822;SDS011;15961;54.678;9.110;2024-01-16T00:13:36;5.53;;;3.53;;
28822;SDS011;15961;54.678;9.110;2024-01-16T00:16:22;7.63;;;3.65;;
28822;SDS011;15961;54.678;9.110;2024-01-16T00:19:07;5.35;;;3.90;;
28822;SDS011;15961;54.678;9.110;2024-01-16T00:21:53;6.10;;;3.08;;
28822;SDS011;15961;54.678;9.110;2024-01-16T00:24:38;6.13;;;3.55;;
28822;SDS011;15961;54.678;9.110;2024-01-16T00:27:24;5.70;;;3.15;;
28822;SDS011;15961;54.678;9.110;2024-01-16T00:30:10;6.82;;;2.92;;
28822;SDS011;15961;54.678;9.110;2024-01-16T00:32:56;5.03;;;2.80;;
28822;SDS011;15961;54.678;9.110;2024-01-16T00:35:42;5.78;;;3.00;;
28822;SDS011;15961;54.678;9.110;2024-01-16T00:38:27;4.43;;;2.90;;
28822;SDS011;15961;54.678;9.110;2024-01-16T00:41:13;3.88;;;3.33;;
28822;SDS011;15961;54.678;9.110;2024-01-16T00:44:00;5.05;;;3.58;;
28822;SDS011;15961;54.678;9.110;2024-01-16T00:46:45;6.95;;;3.35;;
28822;SDS011;15961;54.678;9.110;2024-01-16T00:49:31;5.00;;;2.67;;
28822;SDS011;15961;54.678;9.110;2024-01-16T00:52:17;4.43;;;2.63;;
28822;SDS011;15961;54.678;9.110;2024-01-16T00:55:02;4.95;;;2.90;;
28822;SDS011;15961;54.678;9.110;2024-01-16T00:57:49;5.32;;;2.70;;
28822;SDS011;15961;54.678;9.110;2024-01-16T01:00:34;3.70;;;2.90;;
28822;SDS011;15961;54.678;9.110;2024-01-16T01:03:22;3.72;;;2.15;;
28822;SDS011;15961;54.678;9.110;2024-01-16T01:06:08;5.70;;;3.75;;
28822;SDS011;15961;54.678;9.110;2024-01-16T01:08:53;7.32;;;3.47;;
28822;SDS011;15961;54.678;9.110;2024-01-16T01:11:39;3.92;;;2.80;;
28822;SDS011;15961;54.678;9.110;2024-01-16T01:14:25;4.13;;;2.90;;
28822;SDS011;15961;54.678;9.110;2024-01-16T01:17:12;4.38;;;3.47;;
28822;SDS011;15961;54.678;9.110;2024-01-16T01:19:57;8.55;;;3.25;;
28822;SDS011;15961;54.678;9.110;2024-01-16T01:22:43;4.70;;;2.65;;
28822;SDS011;15961;54.678;9.110;2024-01-16T01:25:29;10.20;;;3.65;;
28822;SDS011;15961;54.678;9.110;2024-01-16T01:28:15;3.88;;;3.45;;
28822;SDS011;15961;54.678;9.110;2024-01-16T01:31:01;7.93;;;2.97;;
28822;SDS011;15961;54.678;9.110;2024-01-16T01:33:46;4.30;;;3.13;;
28822;SDS011;15961;54.678;9.110;2024-01-16T01:36:33;6.93;;;3.78;;
28822;SDS011;15961;54.678;9.110;2024-01-16T01:39:18;4.05;;;2.85;;
28822;SDS011;15961;54.678;9.110;2024-01-16T01:42:04;3.55;;;2.35;;
28822;SDS011;15961;54.678;9.110;2024-01-16T01:44:49;8.88;;;3.00;;
28822;SDS011;15961;54.678;9.110;2024-01-16T01:47:35;7.90;;;3.33;;
28822;SDS011;15961;54.678;9.110;2024-01-16T01:50:22;3.40;;;3.10;;
28822;SDS011;15961;54.678;9.110;2024-01-16T01:53:07;8.32;;;3.17;;
28822;SDS011;15961;54.678;9.110;2024-01-16T01:55:54;3.88;;;3.15;;
28822;SDS011;15961;54.678;9.110;2024-01-16T01:58:40;3.90;;;2.78;;
28822;SDS011;15961;54.678;9.110;2024-01-16T02:01:26;2.83;;;2.35;;
28822;SDS011;15961;54.678;9.110;2024-01-16T02:04:16;6.07;;;2.97;;
28822;SDS011;15961;54.678;9.110;2024-01-16T02:07:02;5.40;;;2.88;;
28822;SDS011;15961;54.678;9.110;2024-01-16T02:09:49;6.93;;;3.45;;
28822;SDS011;15961;54.678;9.110;2024-01-16T02:12:35;4.07;;;2.83;;
28822;SDS011;15961;54.678;9.110;2024-01-16T02:15:21;3.80;;;2.05;;
28822;SDS011;15961;54.678;9.110;2024-01-16T02:18:08;4.13;;;2.47;;
28822;SDS011;15961;54.678;9.110;2024-01-16T02:20:55;3.25;;;2.75;;
28822;SDS011;15961;54.678;9.110;2024-01-16T02:23:44;4.03;;;2.90;;
28822;SDS011;15961;54.678;9.110;2024-01-16T02:26:29;3.65;;;2.28;;
28822;SDS011;15961;54.678;9.110;2024-01-16T02:29:15;3.17;;;2.70;;
28822;SDS011;15961;54.678;9.110;2024-01-16T02:32:01;5.05;;;3.22;;
28822;SDS011;15961;54.678;9.110;2024-01-16T02:34:48;3.80;;;2.80;;
28822;SDS011;15961;54.678;9.110;2024-01-16T02:37:35;3.83;;;3.03;;
28822;SDS011;15961;54.678;9.110;2024-01-16T02:40:21;6.03;;;3.28;;
28822;SDS011;15961;54.678;9.110;2024-01-16T02:43:07;3.25;;;2.85;;
28822;SDS011;15961;54.678;9.110;2024-01-16T02:45:52;7.45;;;3.72;;
28822;SDS011;15961;54.678;9.110;2024-01-16T02:48:38;5.35;;;3.05;;
28822;SDS011;15961;54.678;9.110;2024-01-16T02:51:24;6.35;;;3.60;;
28822;SDS011;15961;54.678;9.110;2024-01-16T02:54:10;5.55;;;4.20;;
28822;SDS011;15961;54.678;9.110;2024-01-16T02:56:55;6.60;;;4.00;;
28822;SDS011;15961;54.678;9.110;2024-01-16T02:59:44;6.95;;;4.28;;
28822;SDS011;15961;54.678;9.110;2024-01-16T03:02:29;6.40;;;3.55;;
28822;SDS011;15961;54.678;9.110;2024-01-16T03:05:15;11.82;;;4.93;;
28822;SDS011;15961;54.678;9.110;2024-01-16T03:08:01;5.10;;;3.53;;
28822;SDS011;15961;54.678;9.110;2024-01-16T03:10:46;8.38;;;4.07;;
28822;SDS011;15961;54.678;9.110;2024-01-16T03:13:32;9.73;;;4.63;;
28822;SDS011;15961;54.678;9.110;2024-01-16T03:16:18;7.57;;;4.50;;
28822;SDS011;15961;54.678;9.110;2024-01-16T03:19:03;7.95;;;3.65;;
28822;SDS011;15961;54.678;9.110;2024-01-16T03:21:49;5.53;;;3.67;;
28822;SDS011;15961;54.678;9.110;2024-01-16T03:24:35;8.95;;;3.90;;
28822;SDS011;15961;54.678;9.110;2024-01-16T03:27:21;6.20;;;3.92;;
28822;SDS011;15961;54.678;9.110;2024-01-16T03:30:06;7.32;;;3.67;;
28822;SDS011;15961;54.678;9.110;2024-01-16T03:32:53;11.82;;;5.10;;
28822;SDS011;15961;54.678;9.110;2024-01-16T03:35:39;8.18;;;4.38;;
28822;SDS011;15961;54.678;9.110;2024-01-16T03:38:24;9.85;;;4.78;;
28822;SDS011;15961;54.678;9.110;2024-01-16T03:41:10;8.93;;;4.28;;
28822;SDS011;15961;54.678;9.110;2024-01-16T03:43:56;8.90;;;4.38;;
28822;SDS011;15961;54.678;9.110;2024-01-16T03:46:42;11.57;;;4.65;;
28822;SDS011;15961;54.678;9.110;2024-01-16T03:49:27;5.13;;;3.70;;
28822;SDS011;15961;54.678;9.110;2024-01-16T03:52:13;9.25;;;3.95;;
28822;SDS011;15961;54.678;9.110;2024-01-16T03:55:01;13.02;;;5.15;;
28822;SDS011;15961;54.678;9.110;2024-01-16T03:57:46;6.38;;;3.55;;
28822;SDS011;15961;54.678;9.110;2024-01-16T04:00:32;9.93;;;4.25;;
28822;SDS011;15961;54.678;9.110;2024-01-16T04:03:18;7.80;;;3.50;;
28822;SDS011;15961;54.678;9.110;2024-01-16T04:06:04;8.45;;;3.30;;
28822;SDS011;15961;54.678;9.110;2024-01-16T04:08:59;14.48;;;5.25;;
28822;SDS011;15961;54.678;9.110;2024-01-16T04:11:45;10.55;;;4.95;;
28822;SDS011;15961;54.678;9.110;2024-01-16T04:14:32;7.28;;;4.25;;
28822;SDS011;15961;54.678;9.110;2024-01-16T04:17:18;10.93;;;4.65;;
28822;SDS011;15961;54.678;9.110;2024-01-16T04:20:04;8.02;;;4.25;;
28822;SDS011;15961;54.678;9.110;2024-01-16T04:22:52;10.00;;;5.20;;
28822;SDS011;15961;54.678;9.110;2024-01-16T04:25:37;7.88;;;4.70;;
28822;SDS011;15961;54.678;9.110;2024-01-16T04:28:23;9.73;;;5.13;;
28822;SDS011;15961;54.678;9.110;2024-01-16T04:31:09;7.95;;;3.42;;
28822;SDS011;15961;54.678;9.110;2024-01-16T04:33:57;7.50;;;4.03;;
28822;SDS011;15961;54.678;9.110;2024-01-16T04:36:42;8.80;;;5.65;;
28822;SDS011;15961;54.678;9.110;2024-01-16T04:39:28;8.85;;;4.25;;
28822;SDS011;15961;54.678;9.110;2024-01-16T04:42:14;9.95;;;5.05;;
28822;SDS011;15961;54.678;9.110;2024-01-16T04:45:00;8.38;;;3.75;;
28822;SDS011;15961;54.678;9.110;2024-01-16T04:47:46;9.85;;;5.22;;
28822;SDS011;15961;54.678;9.110;2024-01-16T04:50:31;7.35;;;4.40;;
28822;SDS011;15961;54.678;9.110;2024-01-16T04:53:17;8.35;;;4.22;;
28822;SDS011;15961;54.678;9.110;2024-01-16T04:56:03;9.40;;;5.65;;
28822;SDS011;15961;54.678;9.110;2024-01-16T04:58:51;9.07;;;4.43;;
28822;SDS011;15961;54.678;9.110;2024-01-16T05:01:37;9.43;;;4.88;;
28822;SDS011;15961;54.678;9.110;2024-01-16T05:04:23;5.55;;;4.00;;
28822;SDS011;15961;54.678;9.110;2024-01-16T05:07:08;11.55;;;4.65;;
28822;SDS011;15961;54.678;9.110;2024-01-16T05:09:54;9.20;;;4.30;;
28822;SDS011;15961;54.678;9.110;2024-01-16T05:12:40;10.40;;;4.97;;
28822;SDS011;15961;54.678;9.110;2024-01-16T05:15:26;11.18;;;5.50;;
28822;SDS011;15961;54.678;9.110;2024-01-16T05:18:12;9.07;;;4.50;;
28822;SDS011;15961;54.678;9.110;2024-01-16T05:20:58;10.15;;;4.68;;
28822;SDS011;15961;54.678;9.110;2024-01-16T05:23:43;10.52;;;4.85;;
28822;SDS011;15961;54.678;9.110;2024-01-16T05:26:29;9.75;;;4.72;;
28822;SDS011;15961;54.678;9.110;2024-01-16T05:29:15;10.52;;;5.18;;
28822;SDS011;15961;54.678;9.110;2024-01-16T05:32:00;9.50;;;5.00;;
28822;SDS011;15961;54.678;9.110;2024-01-16T05:34:46;10.60;;;5.00;;
28822;SDS011;15961;54.678;9.110;2024-01-16T05:37:32;11.75;;;4.82;;
28822;SDS011;15961;54.678;9.110;2024-01-16T05:40:17;12.27;;;5.85;;
28822;SDS011;15961;54.678;9.110;2024-01-16T05:43:03;6.60;;;4.65;;
28822;SDS011;15961;54.678;9.110;2024-01-16T05:45:49;9.70;;;5.30;;
28822;SDS011;15961;54.678;9.110;2024-01-16T05:48:35;11.90;;;5.00;;
28822;SDS011;15961;54.678;9.110;2024-01-16T05:51:21;12.68;;;5.30;;
28822;SDS011;15961;54.678;9.110;2024-01-16T05:54:06;14.27;;;4.95;;
28822;SDS011;15961;54.678;9.110;2024-01-16T05:56:52;14.30;;;6.38;;
28822;SDS011;15961;54.678;9.110;2024-01-16T05:59:38;13.25;;;5.03;;
28822;SDS011;15961;54.678;9.110;2024-01-16T06:02:23;10.00;;;4.70;;
28822;SDS011;15961;54.678;9.110;2024-01-16T06:05:09;11.27;;;5.28;;
28822;SDS011;15961;54.678;9.110;2024-01-16T06:07:55;10.40;;;5.90;;
28822;SDS011;15961;54.678;9.110;2024-01-16T06:10:40;13.05;;;4.80;;
28822;SDS011;15961;54.678;9.110;2024-01-16T06:13:26;9.98;;;4.15;;
28822;SDS011;15961;54.678;9.110;2024-01-16T06:16:12;14.20;;;5.38;;
28822;SDS011;15961;54.678;9.110;2024-01-16T06:18:57;12.65;;;5.28;;
28822;SDS011;15961;54.678;9.110;2024-01-16T06:21:43;13.20;;;5.65;;
28822;SDS011;15961;54.678;9.110;2024-01-16T06:24:29;13.23;;;6.10;;
28822;SDS011;15961;54.678;9.110;2024-01-16T06:27:21;12.90;;;6.10;;
28822;SDS011;15961;54.678;9.110;2024-01-16T06:30:07;13.05;;;5.82;;
28822;SDS011;15961;54.678;9.110;2024-01-16T06:32:55;14.60;;;5.75;;
28822;SDS011;15961;54.678;9.110;2024-01-16T06:35:40;11.18;;;5.85;;
28822;SDS011;15961;54.678;9.110;2024-01-16T06:38:26;18.23;;;4.72;;
28822;SDS011;15961;54.678;9.110;2024-01-16T06:41:12;14.43;;;5.88;;
28822;SDS011;15961;54.678;9.110;2024-01-16T06:43:57;19.40;;;5.57;;
28822;SDS011;15961;54.678;9.110;2024-01-16T06:46:43;11.13;;;5.22;;
28822;SDS011;15961;54.678;9.110;2024-01-16T06:49:29;11.00;;;5.18;;
28822;SDS011;15961;54.678;9.110;2024-01-16T06:52:14;15.55;;;6.72;;
28822;SDS011;15961;54.678;9.110;2024-01-16T06:55:00;14.88;;;5.88;;
28822;SDS011;15961;54.678;9.110;2024-01-16T06:57:46;16.17;;;5.43;;
28822;SDS011;15961;54.678;9.110;2024-01-16T07:00:32;22.58;;;7.43;;
28822;SDS011;15961;54.678;9.110;2024-01-16T07:03:17;13.15;;;6.22;;
28822;SDS011;15961;54.678;9.110;2024-01-16T07:06:03;14.48;;;5.50;;
28822;SDS011;15961;54.678;9.110;2024-01-16T07:08:49;20.25;;;7.00;;
28822;SDS011;15961;54.678;9.110;2024-01-16T07:11:35;16.00;;;6.43;;
28822;SDS011;15961;54.678;9.110;2024-01-16T07:14:21;20.33;;;6.97;;
28822;SDS011;15961;54.678;9.110;2024-01-16T07:17:06;17.10;;;7.28;;
28822;SDS011;15961;54.678;9.110;2024-01-16T07:19:53;9.13;;;4.80;;
28822;SDS011;15961;54.678;9.110;2024-01-16T07:22:38;23.60;;;8.65;;
28822;SDS011;15961;54.678;9.110;2024-01-16T07:25:26;13.80;;;6.18;;
28822;SDS011;15961;54.678;9.110;2024-01-16T07:28:12;22.77;;;7.63;;
28822;SDS011;15961;54.678;9.110;2024-01-16T07:30:58;26.80;;;6.97;;
28822;SDS011;15961;54.678;9.110;2024-01-16T07:33:43;14.05;;;6.90;;
28822;SDS011;15961;54.678;9.110;2024-01-16T07:36:29;16.52;;;7.30;;
28822;SDS011;15961;54.678;9.110;2024-01-16T07:39:15;18.17;;;6.18;;
28822;SDS011;15961;54.678;9.110;2024-01-16T07:42:01;18.02;;;6.95;;
28822;SDS011;15961;54.678;9.110;2024-01-16T07:44:47;15.35;;;6.28;;
28822;SDS011;15961;54.678;9.110;2024-01-16T07:47:33;14.88;;;5.95;;
28822;SDS011;15961;54.678;9.110;2024-01-16T07:50:18;16.77;;;6.38;;
28822;SDS011;15961;54.678;9.110;2024-01-16T07:53:04;20.77;;;6.85;;
28822;SDS011;15961;54.678;9.110;2024-01-16T07:55:53;21.75;;;6.30;;
28822;SDS011;15961;54.678;9.110;2024-01-16T07:58:40;15.10;;;7.07;;
28822;SDS011;15961;54.678;9.110;2024-01-16T08:01:25;20.45;;;7.85;;
28822;SDS011;15961;54.678;9.110;2024-01-16T08:04:11;17.02;;;6.90;;
28822;SDS011;15961;54.678;9.110;2024-01-16T08:06:56;17.40;;;6.93;;
28822;SDS011;15961;54.678;9.110;2024-01-16T08:09:42;17.08;;;6.30;;
28822;SDS011;15961;54.678;9.110;2024-01-16T08:12:28;12.75;;;6.20;;
28822;SDS011;15961;54.678;9.110;2024-01-16T08:15:13;12.95;;;7.15;;
28822;SDS011;15961;54.678;9.110;2024-01-16T08:17:59;20.20;;;7.28;;
28822;SDS011;15961;54.678;9.110;2024-01-16T08:20:45;18.75;;;6.60;;
28822;SDS011;15961;54.678;9.110;2024-01-16T08:23:30;14.15;;;6.47;;
28822;SDS011;15961;54.678;9.110;2024-01-16T08:26:16;17.02;;;5.82;;
28822;SDS011;15961;54.678;9.110;2024-01-16T08:29:01;18.08;;;7.45;;
28822;SDS011;15961;54.678;9.110;2024-01-16T08:31:47;19.33;;;7.57;;
28822;SDS011;15961;54.678;9.110;2024-01-16T08:34:33;22.35;;;7.60;;
28822;SDS011;15961;54.678;9.110;2024-01-16T08:37:18;18.48;;;7.35;;
28822;SDS011;15961;54.678;9.110;2024-01-16T08:40:04;25.13;;;8.38;;
28822;SDS011;15961;54.678;9.110;2024-01-16T08:42:51;18.65;;;8.48;;
28822;SDS011;15961;54.678;9.110;2024-01-16T08:45:40;21.80;;;7.95;;
28822;SDS011;15961;54.678;9.110;2024-01-16T08:48:25;17.83;;;7.60;;
28822;SDS011;15961;54.678;9.110;2024-01-16T08:51:11;28.60;;;9.50;;
28822;SDS011;15961;54.678;9.110;2024-01-16T08:54:00;30.88;;;9.98;;
28822;SDS011;15961;54.678;9.110;2024-01-16T08:56:45;22.45;;;7.95;;
28822;SDS011;15961;54.678;9.110;2024-01-16T08:59:31;33.15;;;9.20;;
28822;SDS011;15961;54.678;9.110;2024-01-16T09:02:17;26.50;;;8.57;;
28822;SDS011;15961;54.678;9.110;2024-01-16T09:05:03;21.40;;;8.88;;
28822;SDS011;15961;54.678;9.110;2024-01-16T09:07:50;27.20;;;8.73;;
28822;SDS011;15961;54.678;9.110;2024-01-16T09:10:36;30.80;;;8.52;;
28822;SDS011;15961;54.678;9.110;2024-01-16T09:13:21;23.25;;;9.40;;
28822;SDS011;15961;54.678;9.110;2024-01-16T09:16:08;20.85;;;9.18;;
28822;SDS011;15961;54.678;9.110;2024-01-16T09:18:54;22.33;;;8.80;;
28822;SDS011;15961;54.678;9.110;2024-01-16T09:21:40;21.88;;;8.20;;
28822;SDS011;15961;54.678;9.110;2024-01-16T09:24:25;22.20;;;7.90;;
28822;SDS011;15961;54.678;9.110;2024-01-16T09:27:11;20.13;;;8.60;;
28822;SDS011;15961;54.678;9.110;2024-01-16T09:29:59;26.90;;;8.20;;
28822;SDS011;15961;54.678;9.110;2024-01-16T09:32:45;20.25;;;8.38;;
28822;SDS011;15961;54.678;9.110;2024-01-16T09:35:30;27.25;;;7.95;;
28822;SDS011;15961;54.678;9.110;2024-01-16T09:38:16;22.10;;;7.07;;
28822;SDS011;15961;54.678;9.110;2024-01-16T09:41:02;20.25;;;8.20;;
28822;SDS011;15961;54.678;9.110;2024-01-16T09:43:48;21.23;;;7.60;;
28822;SDS011;15961;54.678;9.110;2024-01-16T09:46:34;19.20;;;6.75;;
28822;SDS011;15961;54.678;9.110;2024-01-16T09:49:23;26.58;;;7.53;;
28822;SDS011;15961;54.678;9.110;2024-01-16T09:52:08;17.90;;;6.88;;
28822;SDS011;15961;54.678;9.110;2024-01-16T09:54:54;17.17;;;6.35;;
28822;SDS011;15961;54.678;9.110;2024-01-16T09:57:40;22.17;;;7.40;;
28822;SDS011;15961;54.678;9.110;2024-01-16T10:00:26;25.30;;;7.93;;
28822;SDS011;15961;54.678;9.110;2024-01-16T10:03:12;23.65;;;8.35;;
28822;SDS011;15961;54.678;9.110;2024-01-16T10:05:59;16.30;;;6.43;;
28822;SDS011;15961;54.678;9.110;2024-01-16T10:08:45;19.15;;;6.63;;
28822;SDS011;15961;54.678;9.110;2024-01-16T10:11:31;15.02;;;7.60;;
28822;SDS011;15961;54.678;9.110;2024-01-16T10:14:19;15.13;;;4.93;;
28822;SDS011;15961;54.678;9.110;2024-01-16T10:17:05;17.63;;;5.70;;
28822;SDS011;15961;54.678;9.110;2024-01-16T10:19:51;14.20;;;4.95;;
28822;SDS011;15961;54.678;9.110;2024-01-16T10:22:53;11.02;;;4.68;;
28822;SDS011;15961;54.678;9.110;2024-01-16T10:25:39;13.98;;;4.97;;
28822;SDS011;15961;54.678;9.110;2024-01-16T10:28:27;14.68;;;5.63;;
28822;SDS011;15961;54.678;9.110;2024-01-16T10:31:13;12.45;;;4.20;;
28822;SDS011;15961;54.678;9.110;2024-01-16T10:34:02;16.83;;;4.18;;
28822;SDS011;15961;54.678;9.110;2024-01-16T10:36:49;9.13;;;3.72;;
28822;SDS011;15961;54.678;9.110;2024-01-16T10:39:37;9.88;;;4.65;;
28822;SDS011;15961;54.678;9.110;2024-01-16T10:42:24;13.43;;;6.32;;
28822;SDS011;15961;54.678;9.110;2024-01-16T10:45:11;13.68;;;5.47;;
28822;SDS011;15961;54.678;9.110;2024-01-16T10:48:03;16.42;;;6.20;;
28822;SDS011;15961;54.678;9.110;2024-01-16T10:50:49;18.00;;;6.68;;
28822;SDS011;15961;54.678;9.110;2024-01-16T10:53:42;12.65;;;4.90;;
28822;SDS011;15961;54.678;9.110;2024-01-16T10:56:29;8.55;;;4.28;;
28822;SDS011;15961;54.678;9.110;2024-01-16T10:59:31;10.10;;;4.50;;
28822;SDS011;15961;54.678;9.110;2024-01-16T11:02:20;8.88;;;3.80;;
28822;SDS011;15961;54.678;9.110;2024-01-16T11:05:09;12.55;;;5.47;;
28822;SDS011;15961;54.678;9.110;2024-01-16T11:07:56;13.20;;;5.00;;
28822;SDS011;15961;54.678;9.110;2024-01-16T11:10:43;12.00;;;5.90;;
28822;SDS011;15961;54.678;9.110;2024-01-16T11:13:32;11.07;;;5.40;;
28822;SDS011;15961;54.678;9.110;2024-01-16T11:16:21;11.25;;;5.15;;
28822;SDS011;15961;54.678;9.110;2024-01-16T11:19:08;14.85;;;5.88;;
28822;SDS011;15961;54.678;9.110;2024-01-16T11:21:54;9.45;;;5.03;;
28822;SDS011;15961;54.678;9.110;2024-01-16T11:24:41;14.05;;;6.32;;
28822;SDS011;15961;54.678;9.110;2024-01-16T11:27:27;12.00;;;6.00;;
28822;SDS011;15961;54.678;9.110;2024-01-16T11:30:13;8.73;;;4.65;;
28822;SDS011;15961;54.678;9.110;2024-01-16T11:39:29;14.68;;;4.90;;
28822;SDS011;15961;54.678;9.110;2024-01-16T11:42:25;11.98;;;6.15;;
28822;SDS011;15961;54.678;9.110;2024-01-16T11:48:28;12.02;;;5.57;;
28822;SDS011;15961;54.678;9.110;2024-01-16T11:51:24;12.27;;;4.90;;
28822;SDS011;15961;54.678;9.110;2024-01-16T11:54:10;15.15;;;5.03;;
28822;SDS011;15961;54.678;9.110;2024-01-16T12:00:18;8.63;;;3.75;;
28822;SDS011;15961;54.678;9.110;2024-01-16T12:03:05;12.00;;;5.28;;
28822;SDS011;15961;54.678;9.110;2024-01-16T12:05:55;8.20;;;4.35;;
28822;SDS011;15961;54.678;9.110;2024-01-16T12:08:44;8.77;;;4.47;;
28822;SDS011;15961;54.678;9.110;2024-01-16T12:11:29;10.35;;;5.40;;
28822;SDS011;15961;54.678;9.110;2024-01-16T12:14:15;13.52;;;4.65;;
28822;SDS011;15961;54.678;9.110;2024-01-16T12:17:10;12.00;;;4.80;;
28822;SDS011;15961;54.678;9.110;2024-01-16T12:19:56;11.43;;;5.32;;
28822;SDS011;15961;54.678;9.110;2024-01-16T12:22:42;5.78;;;2.88;;
28822;SDS011;15961;54.678;9.110;2024-01-16T12:25:30;6.30;;;3.40;;
28822;SDS011;15961;54.678;9.110;2024-01-16T12:28:17;9.88;;;4.30;;
28822;SDS011;15961;54.678;9.110;2024-01-16T12:31:06;8.23;;;4.68;;
28822;SDS011;15961;54.678;9.110;2024-01-16T12:33:52;7.45;;;3.47;;
28822;SDS011;15961;54.678;9.110;2024-01-16T12:36:37;8.73;;;3.70;;
28822;SDS011;15961;54.678;9.110;2024-01-16T12:39:23;8.93;;;4.05;;
28822;SDS011;15961;54.678;9.110;2024-01-16T12:42:10;6.10;;;3.78;;
28822;SDS011;15961;54.678;9.110;2024-01-16T12:44:56;8.30;;;4.13;;
28822;SDS011;15961;54.678;9.110;2024-01-16T12:47:48;7.95;;;3.95;;
28822;SDS011;15961;54.678;9.110;2024-01-16T12:50:35;11.70;;;4.40;;
28822;SDS011;15961;54.678;9.110;2024-01-16T12:53:22;9.80;;;5.43;;
28822;SDS011;15961;54.678;9.110;2024-01-16T12:56:09;10.68;;;5.32;;
28822;SDS011;15961;54.678;9.110;2024-01-16T12:58:57;13.82;;;5.15;;
28822;SDS011;15961;54.678;9.110;2024-01-16T13:01:43;10.30;;;4.85;;
28822;SDS011;15961;54.678;9.110;2024-01-16T13:04:31;9.90;;;4.65;;
28822;SDS011;15961;54.678;9.110;2024-01-16T13:07:17;8.63;;;4.10;;
28822;SDS011;15961;54.678;9.110;2024-01-16T13:10:12;11.40;;;5.72;;
28822;SDS011;15961;54.678;9.110;2024-01-16T13:13:11;10.15;;;4.30;;
28822;SDS011;15961;54.678;9.110;2024-01-16T13:15:58;12.98;;;5.07;;
28822;SDS011;15961;54.678;9.110;2024-01-16T13:18:44;12.82;;;5.13;;
28822;SDS011;15961;54.678;9.110;2024-01-16T13:21:30;10.98;;;4.55;;
28822;SDS011;15961;54.678;9.110;2024-01-16T13:24:16;9.50;;;4.18;;
28822;SDS011;15961;54.678;9.110;2024-01-16T13:29:54;8.43;;;3.92;;
28822;SDS011;15961;54.678;9.110;2024-01-16T13:32:40;8.00;;;4.00;;
28822;SDS011;15961;54.678;9.110;2024-01-16T13:35:26;7.95;;;4.20;;
28822;SDS011;15961;54.678;9.110;2024-01-16T13:38:11;9.63;;;4.05;;
28822;SDS011;15961;54.678;9.110;2024-01-16T13:40:58;11.45;;;4.50;;
28822;SDS011;15961;54.678;9.110;2024-01-16T13:43:43;10.13;;;4.78;;
28822;SDS011;15961;54.678;9.110;2024-01-16T13:46:29;10.65;;;4.55;;
28822;SDS011;15961;54.678;9.110;2024-01-16T13:49:14;10.93;;;4.88;;
28822;SDS011;15961;54.678;9.110;2024-01-16T13:52:00;9.27;;;4.32;;
28822;SDS011;15961;54.678;9.110;2024-01-16T13:54:46;8.65;;;3.80;;
28822;SDS011;15961;54.678;9.110;2024-01-16T13:57:32;11.63;;;4.18;;
28822;SDS011;15961;54.678;9.110;2024-01-16T14:00:18;7.43;;;3.65;;
28822;SDS011;15961;54.678;9.110;2024-01-16T14:03:04;11.27;;;4.05;;
28822;SDS011;15961;54.678;9.110;2024-01-16T14:05:51;9.30;;;4.38;;
28822;SDS011;15961;54.678;9.110;2024-01-16T14:08:38;8.73;;;4.35;;
28822;SDS011;15961;54.678;9.110;2024-01-16T14:11:23;10.35;;;4.53;;
28822;SDS011;15961;54.678;9.110;2024-01-16T14:14:09;11.15;;;4.00;;
28822;SDS011;15961;54.678;9.110;2024-01-16T14:16:56;10.07;;;4.05;;
28822;SDS011;15961;54.678;9.110;2024-01-16T14:19:42;9.70;;;3.35;;
28822;SDS011;15961;54.678;9.110;2024-01-16T14:22:28;7.57;;;3.10;;
28822;SDS011;15961;54.678;9.110;2024-01-16T14:25:14;6.82;;;3.17;;
28822;SDS011;15961;54.678;9.110;2024-01-16T14:28:04;5.63;;;2.97;;
28822;SDS011;15961;54.678;9.110;2024-01-16T14:30:49;8.18;;;3.85;;
28822;SDS011;15961;54.678;9.110;2024-01-16T14:33:36;8.23;;;3.47;;
28822;SDS011;15961;54.678;9.110;2024-01-16T14:36:21;5.32;;;3.03;;
28822;SDS011;15961;54.678;9.110;2024-01-16T14:39:07;8.00;;;3.40;;
28822;SDS011;15961;54.678;9.110;2024-01-16T14:41:58;6.72;;;3.92;;
28822;SDS011;15961;54.678;9.110;2024-01-16T14:44:44;6.10;;;2.75;;
28822;SDS011;15961;54.678;9.110;2024-01-16T14:47:30;5.78;;;3.35;;
28822;SDS011;15961;54.678;9.110;2024-01-16T14:50:15;13.15;;;3.58;;
28822;SDS011;15961;54.678;9.110;2024-01-16T14:53:02;7.40;;;4.20;;
28822;SDS011;15961;54.678;9.110;2024-01-16T14:55:51;6.88;;;3.63;;
28822;SDS011;15961;54.678;9.110;2024-01-16T14:58:38;7.75;;;3.17;;
28822;SDS011;15961;54.678;9.110;2024-01-16T15:01:24;7.63;;;3.22;;
28822;SDS011;15961;54.678;9.110;2024-01-16T15:04:10;7.10;;;3.60;;
28822;SDS011;15961;54.678;9.110;2024-01-16T15:06:56;10.38;;;4.07;;
28822;SDS011;15961;54.678;9.110;2024-01-16T15:09:41;9.52;;;4.25;;
28822;SDS011;15961;54.678;9.110;2024-01-16T15:12:27;8.70;;;3.42;;
28822;SDS011;15961;54.678;9.110;2024-01-16T15:15:13;11.48;;;4.40;;
28822;SDS011;15961;54.678;9.110;2024-01-16T15:18:00;8.75;;;4.00;;
28822;SDS011;15961;54.678;9.110;2024-01-16T15:20:46;12.40;;;4.53;;
28822;SDS011;15961;54.678;9.110;2024-01-16T15:23:32;8.70;;;4.18;;
28822;SDS011;15961;54.678;9.110;2024-01-16T15:26:17;14.32;;;5.25;;
28822;SDS011;15961;54.678;9.110;2024-01-16T15:29:05;11.73;;;4.68;;
28822;SDS011;15961;54.678;9.110;2024-01-16T15:31:51;12.25;;;5.00;;
28822;SDS011;15961;54.678;9.110;2024-01-16T15:34:37;10.05;;;4.35;;
28822;SDS011;15961;54.678;9.110;2024-01-16T15:37:23;14.18;;;4.70;;
28822;SDS011;15961;54.678;9.110;2024-01-16T15:40:09;15.40;;;5.43;;
28822;SDS011;15961;54.678;9.110;2024-01-16T15:42:57;13.02;;;5.97;;
28822;SDS011;15961;54.678;9.110;2024-01-16T15:45:42;13.77;;;6.32;;
28822;SDS011;15961;54.678;9.110;2024-01-16T15:48:28;10.35;;;4.82;;
28822;SDS011;15961;54.678;9.110;2024-01-16T15:51:18;10.60;;;4.72;;
28822;SDS011;15961;54.678;9.110;2024-01-16T15:54:04;10.23;;;4.55;;
28822;SDS011;15961;54.678;9.110;2024-01-16T15:56:51;9.93;;;5.22;;
28822;SDS011;15961;54.678;9.110;2024-01-16T15:59:36;9.88;;;3.70;;
28822;SDS011;15961;54.678;9.110;2024-01-16T16:02:22;9.48;;;4.72;;
28822;SDS011;15961;54.678;9.110;2024-01-16T16:05:08;10.95;;;4.65;;
28822;SDS011;15961;54.678;9.110;2024-01-16T16:07:54;9.55;;;4.30;;
28822;SDS011;15961;54.678;9.110;2024-01-16T16:10:40;7.03;;;3.42;;
28822;SDS011;15961;54.678;9.110;2024-01-16T16:13:27;5.43;;;2.42;;
28822;SDS011;15961;54.678;9.110;2024-01-16T16:16:16;4.72;;;2.60;;
28822;SDS011;15961;54.678;9.110;2024-01-16T16:19:02;3.70;;;2.30;;
28822;SDS011;15961;54.678;9.110;2024-01-16T16:21:47;5.88;;;2.60;;
28822;SDS011;15961;54.678;9.110;2024-01-16T16:24:34;6.88;;;3.05;;
28822;SDS011;15961;54.678;9.110;2024-01-16T16:27:24;4.60;;;2.45;;
28822;SDS011;15961;54.678;9.110;2024-01-16T16:32:56;2.95;;;2.30;;
28822;SDS011;15961;54.678;9.110;2024-01-16T16:35:42;6.38;;;3.75;;
28822;SDS011;15961;54.678;9.110;2024-01-16T16:38:29;4.22;;;2.55;;
28822;SDS011;15961;54.678;9.110;2024-01-16T16:41:15;6.05;;;2.25;;
28822;SDS011;15961;54.678;9.110;2024-01-16T16:44:01;4.10;;;1.95;;
28822;SDS011;15961;54.678;9.110;2024-01-16T16:46:48;3.83;;;2.35;;
28822;SDS011;15961;54.678;9.110;2024-01-16T16:49:33;2.42;;;1.95;;
28822;SDS011;15961;54.678;9.110;2024-01-16T16:52:19;3.95;;;2.10;;
28822;SDS011;15961;54.678;9.110;2024-01-16T16:55:05;5.50;;;1.90;;
28822;SDS011;15961;54.678;9.110;2024-01-16T16:57:50;2.50;;;2.00;;